Hauptseite
METAR-TAF:

METAR-TAF

Flughäfen :

Durham Tees Valley Airport

Durham, England

Breite: 54-31N, Länge: 001-25W, Höhe: 37 m

Beobachtung

Neuester Wetterbericht von vor 36 Minuten, um 14:50 UTC
Wind 15 kt aus Nordost
Temperatur 18°C
Luftfeuchtigkeit 73%
Luftdruck 1020 hPa
Sichtweite 10 km oder mehr
keine Wolken unter 1500 m und keine Kumulonimbus oder Gewitterwolken

METAR: EGNV 271450Z 04015KT CAVOK 18/13 Q1020

Zeit: 16:26 (15:26 UTC)


TAF: fehlend

Wetterbeobachtungen und Prognosen von mehr als 4000 Flughäfen (METAR und TAF Bericht).

Die verfügbaren Stationen werden durch gelbe und rote Markierungen auf der Karte dargestellt.

Führen Sie die Maus auf sie, um den Namen der Station zu sehen.

Darauf klicken, um die Beobachtung von Wetterbeobachtungen und Prognosen zu sehen.

Um die Karte zu ändern : klicken Sie auf den grünen Tasten mit einem schwarzen Kreuz Zum Vergrößern, auf den grünen Button mit einem Gedankenstrich zu verkleinern, oder auf die grünen Pfeile für benachbarte Karten.


METAR-TAF: